Time;durP1;ratioP1;P1;durP2;ratioP2;P2;SDS_P1;SDS_P2;PMS_P1;PMS_P2;Temp;Humidity;BMP_temperature;BMP_pressure;BME280_temperature;BME280_humidity;BME280_pressure;Samples;Min_cycle;Max_cycle;Signal;HPM_P1;HPM_P2
2021/12/29 00:02:19;;;;;;;14.73;8.90;;;9.90;99.90;;;;;;5036452;28;20485;-69
2021/12/29 00:04:46;;;;;;;10.20;9.20;;;9.90;99.90;;;;;;5036422;28;20446;-69
2021/12/29 00:07:13;;;;;;;10.30;9.20;;;9.90;99.90;;;;;;5036324;28;20457;-69
2021/12/29 00:09:41;;;;;;;11.90;10.27;;;9.90;99.90;;;;;;5036352;28;20446;-69
2021/12/29 00:12:09;;;;;;;13.20;10.90;;;10.00;99.90;;;;;;5036123;28;20504;-69
2021/12/29 00:14:36;;;;;;;11.93;10.20;;;10.00;99.90;;;;;;5036174;28;20461;-70
2021/12/29 00:17:04;;;;;;;12.10;10.73;;;9.90;99.90;;;;;;5035924;28;20860;-70
2021/12/29 00:19:30;;;;;;;12.40;11.20;;;9.90;99.90;;;;;;5036113;28;20443;-70
2021/12/29 00:21:57;;;;;;;11.97;10.73;;;9.90;99.90;;;;;;5036266;28;20471;-69
2021/12/29 00:24:24;;;;;;;10.70;9.57;;;9.90;99.90;;;;;;5036226;28;20443;-69
2021/12/29 00:26:52;;;;;;;13.97;11.37;;;9.90;99.90;;;;;;5035912;28;20967;-69
2021/12/29 00:29:19;;;;;;;12.43;11.10;;;9.90;99.90;;;;;;5035980;28;20447;-69
2021/12/29 00:31:46;;;;;;;15.20;10.47;;;9.90;99.90;;;;;;5035455;28;20490;-69
2021/12/29 00:34:12;;;;;;;14.87;11.60;;;9.90;99.90;;;;;;5035948;28;20500;-69
2021/12/29 00:36:39;;;;;;;15.27;12.50;;;9.90;99.90;;;;;;5035812;28;20442;-69
2021/12/29 00:39:06;;;;;;;16.60;12.57;;;9.90;99.90;;;;;;5035755;28;20450;-70
2021/12/29 00:41:33;;;;;;;15.27;13.17;;;9.90;99.90;;;;;;5035421;28;20984;-70
2021/12/29 00:44:01;;;;;;;16.23;12.90;;;9.90;99.90;;;;;;5035742;28;20860;-69
2021/12/29 00:46:28;;;;;;;17.30;13.13;;;9.90;99.90;;;;;;5035647;28;20453;-69
2021/12/29 00:48:56;;;;;;;20.03;13.80;;;9.90;99.90;;;;;;5035933;28;20850;-69
2021/12/29 00:51:22;;;;;;;19.73;13.03;;;9.90;99.90;;;;;;5035247;28;20486;-69
2021/12/29 00:53:49;;;;;;;23.73;13.00;;;9.80;99.90;;;;;;5035520;28;20851;-69
2021/12/29 00:56:16;;;;;;;20.03;13.90;;;9.90;99.90;;;;;;5035502;28;20442;-69
2021/12/29 00:58:44;;;;;;;14.77;12.03;;;9.90;99.90;;;;;;5035173;28;20816;-69
2021/12/29 01:01:12;;;;;;;19.20;13.07;;;9.80;99.90;;;;;;5034768;28;20546;-69
2021/12/29 01:03:39;;;;;;;16.23;13.27;;;9.90;99.90;;;;;;5035380;28;20450;-69
2021/12/29 01:06:06;;;;;;;16.20;13.10;;;9.90;99.90;;;;;;5035297;28;20453;-69
2021/12/29 01:08:33;;;;;;;15.20;11.80;;;9.90;99.90;;;;;;5034947;28;20823;-69
2021/12/29 01:11:00;;;;;;;13.70;11.80;;;9.90;99.90;;;;;;5035184;28;20467;-69
2021/12/29 01:13:31;;;;;;;15.27;11.90;;;9.90;99.90;;;;;;5035125;28;20493;-69
2021/12/29 01:16:16;;;;;;;13.93;12.27;;;9.90;99.90;;;;;;5034901;28;20896;-69
2021/12/29 01:18:44;;;;;;;12.57;11.03;;;9.80;99.90;;;;;;5035171;28;20478;-69
2021/12/29 01:21:12;;;;;;;15.97;11.80;;;9.80;99.90;;;;;;5035010;28;20470;-69
2021/12/29 01:23:38;;;;;;;13.73;11.30;;;9.80;99.90;;;;;;5034893;28;20542;-69
2021/12/29 01:26:05;;;;;;;15.70;11.73;;;9.80;99.90;;;;;;5034913;28;20453;-69
2021/12/29 01:28:32;;;;;;;16.10;12.70;;;9.80;99.90;;;;;;5034906;28;20451;-69
2021/12/29 01:30:59;;;;;;;17.37;12.10;;;9.80;99.90;;;;;;5034774;28;20463;-69
2021/12/29 01:33:25;;;;;;;12.87;10.33;;;9.70;99.90;;;;;;5034721;28;20552;-69
2021/12/29 01:35:54;;;;;;;14.27;12.27;;;9.80;99.90;;;;;;5034747;28;20455;-69
2021/12/29 01:38:20;;;;;;;13.43;11.10;;;9.80;99.90;;;;;;5034723;28;20450;-69
2021/12/29 01:40:49;;;;;;;13.23;11.60;;;9.80;99.90;;;;;;5034258;28;20793;-69
2021/12/29 01:43:17;;;;;;;12.80;11.50;;;9.80;99.90;;;;;;5034629;28;20545;-69
2021/12/29 01:45:44;;;;;;;12.03;10.80;;;9.80;99.90;;;;;;5034706;28;20447;-69
2021/12/29 01:48:11;;;;;;;14.47;11.43;;;9.90;99.90;;;;;;5034464;28;20455;-69
2021/12/29 01:50:39;;;;;;;12.70;10.30;;;9.80;99.90;;;;;;5034531;28;20442;-69
2021/12/29 01:53:09;;;;;;;11.80;10.63;;;9.90;99.90;;;;;;5034028;28;20984;-69
2021/12/29 01:55:37;;;;;;;12.37;10.67;;;9.90;99.90;;;;;;5034342;28;20451;-69
2021/12/29 01:58:04;;;;;;;13.17;11.23;;;9.80;99.90;;;;;;5034303;28;20444;-69
2021/12/29 02:00:36;;;;;;;12.03;10.83;;;9.80;99.90;;;;;;5033944;28;20853;-69
2021/12/29 02:03:03;;;;;;;12.50;10.90;;;9.80;99.90;;;;;;5034222;28;20422;-70
2021/12/29 02:05:29;;;;;;;13.70;12.30;;;9.80;99.90;;;;;;5034219;28;20447;-70
2021/12/29 02:07:56;;;;;;;13.33;12.03;;;9.80;99.90;;;;;;5033856;28;20454;-69
2021/12/29 02:10:24;;;;;;;15.83;12.17;;;9.80;99.90;;;;;;5034067;28;20442;-70
2021/12/29 02:12:52;;;;;;;12.70;11.47;;;9.90;99.90;;;;;;5033343;28;20482;-69
2021/12/29 02:15:19;;;;;;;11.80;10.60;;;9.90;99.90;;;;;;5034162;28;20954;-70
2021/12/29 02:17:45;;;;;;;15.03;11.83;;;9.80;99.90;;;;;;5033941;28;20529;-69
2021/12/29 02:20:14;;;;;;;13.40;12.10;;;9.80;99.90;;;;;;5033933;28;20445;-69
2021/12/29 02:22:44;;;;;;;14.43;13.10;;;9.80;99.90;;;;;;5034118;28;20490;-70
2021/12/29 02:25:32;;;;;;;16.53;13.10;;;9.80;99.90;;;;;;5033996;28;20534;-69
2021/12/29 02:28:01;;;;;;;13.87;12.47;;;9.80;99.90;;;;;;5033538;28;20933;-69
2021/12/29 02:30:28;;;;;;;14.27;12.87;;;9.90;99.90;;;;;;5033803;28;20439;-69
2021/12/29 02:32:57;;;;;;;16.20;13.37;;;9.90;99.90;;;;;;5033591;28;20490;-69
2021/12/29 02:35:26;;;;;;;15.47;13.13;;;9.90;99.90;;;;;;5033688;28;20449;-69
2021/12/29 02:37:53;;;;;;;14.47;12.90;;;9.80;99.90;;;;;;5033649;28;20447;-69
2021/12/29 02:40:20;;;;;;;15.20;13.60;;;9.80;99.90;;;;;;5033879;28;20512;-69
2021/12/29 02:42:47;;;;;;;17.63;14.10;;;9.80;99.90;;;;;;5033544;28;20595;-69
2021/12/29 02:45:17;;;;;;;18.40;14.60;;;9.80;99.90;;;;;;5033648;28;20458;-69
2021/12/29 02:47:45;;;;;;;16.37;14.67;;;9.80;99.90;;;;;;5033270;28;20439;-69
2021/12/29 02:50:14;;;;;;;16.63;15.03;;;9.80;99.90;;;;;;5033499;28;20447;-69
2021/12/29 02:52:44;;;;;;;16.70;14.93;;;9.80;99.90;;;;;;5032973;28;20494;-69
2021/12/29 02:55:11;;;;;;;16.80;15.00;;;9.80;99.90;;;;;;5033256;28;20960;-69
2021/12/29 02:57:38;;;;;;;16.63;14.73;;;9.80;99.90;;;;;;5033499;28;20446;-69
2021/12/29 03:00:06;;;;;;;18.17;15.87;;;9.80;99.90;;;;;;5033403;28;20449;-69
2021/12/29 03:02:33;;;;;;;19.30;14.57;;;9.80;99.90;;;;;;5033315;28;20462;-69
2021/12/29 03:04:59;;;;;;;14.50;13.00;;;9.80;99.90;;;;;;5033358;28;20447;-69
2021/12/29 03:07:26;;;;;;;17.50;15.57;;;9.80;99.90;;;;;;5033178;28;20442;-69
2021/12/29 03:09:54;;;;;;;15.77;14.17;;;9.80;99.90;;;;;;5033907;28;20430;-69
2021/12/29 03:12:22;;;;;;;19.73;15.60;;;9.80;99.90;;;;;;5032955;28;20899;-70
2021/12/29 03:14:53;;;;;;;19.93;15.47;;;9.80;99.90;;;;;;5033188;28;20861;-69
2021/12/29 03:17:20;;;;;;;17.83;14.87;;;9.80;99.90;;;;;;5033243;28;20456;-69
2021/12/29 03:19:47;;;;;;;15.40;13.80;;;9.70;99.90;;;;;;5033247;28;20442;-69
2021/12/29 03:22:14;;;;;;;16.37;14.60;;;9.80;99.90;;;;;;5033173;28;20463;-69
2021/12/29 03:24:40;;;;;;;16.77;14.37;;;9.80;99.90;;;;;;5034187;28;20453;-70
2021/12/29 03:27:09;;;;;;;15.87;13.60;;;9.80;99.90;;;;;;5037170;28;20446;-69
2021/12/29 03:29:35;;;;;;;15.40;13.80;;;9.80;99.90;;;;;;5036804;28;20860;-69
2021/12/29 03:32:07;;;;;;;14.67;12.83;;;9.80;99.90;;;;;;5036913;28;20477;-69
2021/12/29 03:34:33;;;;;;;14.93;13.43;;;9.80;99.90;;;;;;5036817;28;20437;-69
2021/12/29 03:37:00;;;;;;;16.10;13.40;;;9.80;99.90;;;;;;5037073;28;20446;-69
2021/12/29 03:39:27;;;;;;;15.23;13.70;;;9.90;99.90;;;;;;5037079;28;20450;-69
2021/12/29 03:41:54;;;;;;;15.37;12.80;;;9.90;99.90;;;;;;5037017;28;20869;-69
2021/12/29 03:44:22;;;;;;;13.87;12.47;;;9.80;99.90;;;;;;5037029;28;20792;-69
2021/12/29 03:46:49;;;;;;;15.67;12.80;;;9.80;99.90;;;;;;5036484;28;20450;-66
2021/12/29 03:49:16;;;;;;;12.77;11.47;;;9.80;99.90;;;;;;5036431;28;20457;-66
2021/12/29 03:51:42;;;;;;;14.93;13.17;;;9.80;99.90;;;;;;5036391;28;20482;-67
2021/12/29 03:54:09;;;;;;;16.10;14.50;;;9.80;99.90;;;;;;5036607;28;20481;-66
2021/12/29 03:56:36;;;;;;;14.20;12.70;;;9.70;99.90;;;;;;5036260;28;20966;-66
2021/12/29 03:59:03;;;;;;;15.40;12.63;;;9.70;99.90;;;;;;5036575;28;20461;-66
2021/12/29 04:01:31;;;;;;;16.03;13.40;;;9.80;99.90;;;;;;5036524;28;20462;-66
2021/12/29 04:03:58;;;;;;;15.60;13.67;;;9.70;99.90;;;;;;5036160;28;20936;-66
2021/12/29 04:06:24;;;;;;;16.53;13.40;;;9.80;99.90;;;;;;5036451;28;20454;-66
2021/12/29 04:08:52;;;;;;;14.70;12.53;;;9.70;99.90;;;;;;5036372;28;20447;-66
2021/12/29 04:11:20;;;;;;;15.83;13.10;;;9.80;99.90;;;;;;5036325;28;20505;-67
2021/12/29 04:13:47;;;;;;;18.70;13.90;;;9.80;99.90;;;;;;5035985;28;21061;-66
2021/12/29 04:16:17;;;;;;;14.30;12.53;;;9.70;99.90;;;;;;5036301;28;20493;-66
2021/12/29 04:19:05;;;;;;;16.87;13.90;;;9.70;99.90;;;;;;5036233;28;20430;-66
2021/12/29 04:21:33;;;;;;;14.63;12.43;;;9.70;99.90;;;;;;5036279;28;20471;-67
2021/12/29 04:23:59;;;;;;;18.47;12.37;;;9.70;99.90;;;;;;5036857;28;20501;-66
2021/12/29 04:26:26;;;;;;;15.70;12.30;;;9.70;99.90;;;;;;5036474;28;20439;-66
2021/12/29 04:28:53;;;;;;;14.57;12.10;;;9.60;99.90;;;;;;5036047;28;20817;-66
2021/12/29 04:31:20;;;;;;;18.43;12.87;;;9.70;99.90;;;;;;5035919;28;20470;-66
2021/12/29 04:33:49;;;;;;;15.13;11.97;;;9.70;99.90;;;;;;5035522;28;20995;-66
2021/12/29 04:36:16;;;;;;;17.20;12.40;;;9.70;99.90;;;;;;5034979;28;20522;-66
2021/12/29 04:38:43;;;;;;;13.37;11.97;;;9.60;99.90;;;;;;5035611;28;20461;-66
2021/12/29 04:41:10;;;;;;;16.93;11.73;;;9.70;99.90;;;;;;5035566;28;20520;-66
2021/12/29 04:43:37;;;;;;;15.43;11.83;;;9.70;99.90;;;;;;5035490;28;20454;-66
2021/12/29 04:46:04;;;;;;;14.50;13.00;;;9.60;99.90;;;;;;5035765;28;20453;-66
2021/12/29 04:48:37;;;;;;;15.60;13.20;;;9.60;99.90;;;;;;5035409;28;20916;-66
2021/12/29 04:51:14;;;;;;;14.20;12.63;;;9.70;99.90;;;;;;5035257;28;21027;-66
2021/12/29 04:53:40;;;;;;;18.70;12.63;;;9.70;99.90;;;;;;5035501;28;20539;-66
2021/12/29 04:56:08;;;;;;;15.83;12.57;;;9.70;99.90;;;;;;5035540;28;20446;-66
2021/12/29 04:58:34;;;;;;;15.43;11.40;;;9.60;99.90;;;;;;5035549;28;20813;-66
2021/12/29 05:01:01;;;;;;;14.27;10.83;;;9.60;99.90;;;;;;5035096;28;20852;-66
2021/12/29 05:03:28;;;;;;;16.80;11.40;;;9.60;99.90;;;;;;5035428;28;20450;-66
2021/12/29 05:08:24;;;;;;;15.27;11.67;;;9.70;99.90;;;;;;5035421;28;20450;-66
2021/12/29 05:08:43;;;;;;;14.53;11.17;;;9.60;99.90;;;;;;5034948;28;20419;-66
2021/12/29 05:11:15;;;;;;;20.80;12.50;;;9.70;99.90;;;;;;5034895;28;20867;-67
2021/12/29 05:13:43;;;;;;;15.93;11.43;;;9.60;99.90;;;;;;5035291;28;20466;-66
2021/12/29 05:16:11;;;;;;;15.40;11.40;;;9.60;99.90;;;;;;5035224;28;20458;-66
2021/12/29 05:18:39;;;;;;;15.73;11.40;;;9.70;99.90;;;;;;5035511;28;20482;-66
2021/12/29 05:21:08;;;;;;;18.80;12.57;;;9.60;99.90;;;;;;5034691;28;20997;-67
2021/12/29 05:23:35;;;;;;;15.00;11.80;;;9.60;99.90;;;;;;5034671;28;20816;-66
2021/12/29 05:26:03;;;;;;;17.93;11.63;;;9.60;99.90;;;;;;5034709;28;20454;-66
2021/12/29 05:28:30;;;;;;;17.00;11.90;;;9.60;99.90;;;;;;5034607;28;20820;-66
2021/12/29 05:30:57;;;;;;;14.40;12.53;;;9.60;99.90;;;;;;5034448;28;20934;-66
2021/12/29 05:33:24;;;;;;;15.33;12.43;;;9.70;99.90;;;;;;5034766;28;20474;-66
2021/12/29 05:35:51;;;;;;;15.00;12.73;;;9.60;99.90;;;;;;5034933;28;20512;-66
2021/12/29 05:38:18;;;;;;;14.40;12.00;;;9.70;99.90;;;;;;5034739;28;20449;-66
2021/12/29 05:40:45;;;;;;;16.30;13.03;;;9.70;99.90;;;;;;5034665;28;20458;-67
2021/12/29 05:43:13;;;;;;;20.43;13.50;;;9.60;99.90;;;;;;5034317;28;20947;-66
2021/12/29 05:45:39;;;;;;;14.10;12.13;;;9.70;99.90;;;;;;5034591;28;20496;-66
2021/12/29 05:48:06;;;;;;;15.10;12.70;;;9.70;99.90;;;;;;5034464;28;20442;-66
2021/12/29 05:50:33;;;;;;;17.03;12.30;;;9.70;99.90;;;;;;5034039;28;20457;-66
2021/12/29 05:53:01;;;;;;;16.13;12.97;;;9.70;99.90;;;;;;5034328;28;20486;-66
2021/12/29 05:55:28;;;;;;;16.60;12.40;;;9.70;99.90;;;;;;5034411;28;20447;-66
2021/12/29 05:57:55;;;;;;;18.97;14.30;;;9.70;99.90;;;;;;5034435;28;20449;-66
2021/12/29 06:00:25;;;;;;;17.07;14.17;;;9.70;99.90;;;;;;5034416;28;20457;-66
2021/12/29 06:02:52;;;;;;;21.50;14.50;;;9.70;99.90;;;;;;5034327;28;20467;-66
2021/12/29 06:05:19;;;;;;;15.87;13.57;;;9.70;99.90;;;;;;5034349;28;20450;-66
2021/12/29 06:07:46;;;;;;;18.30;12.83;;;9.70;99.90;;;;;;5034502;28;20449;-66
2021/12/29 06:10:13;;;;;;;15.47;12.90;;;9.70;99.90;;;;;;5034236;28;20442;-66
2021/12/29 06:12:40;;;;;;;14.67;12.53;;;9.70;99.90;;;;;;5034937;28;20516;-67
2021/12/29 06:15:09;;;;;;;16.77;13.40;;;9.70;99.90;;;;;;5034059;28;20529;-66
2021/12/29 06:17:37;;;;;;;17.00;13.00;;;9.60;99.90;;;;;;5034015;28;20469;-66
2021/12/29 06:20:07;;;;;;;18.17;13.70;;;9.60;99.90;;;;;;5033603;28;20443;-66
2021/12/29 06:22:34;;;;;;;16.20;12.43;;;9.60;99.90;;;;;;5033577;28;20984;-66
2021/12/29 06:25:01;;;;;;;14.40;12.60;;;9.70;99.90;;;;;;5033992;28;20450;-66
2021/12/29 06:27:31;;;;;;;18.20;14.40;;;9.70;99.90;;;;;;5033809;28;20442;-66
2021/12/29 06:29:58;;;;;;;17.73;13.00;;;9.70;99.90;;;;;;5033870;28;20524;-68
2021/12/29 06:32:25;;;;;;;15.90;12.20;;;9.80;99.90;;;;;;5033540;28;20471;-66
2021/12/29 06:34:54;;;;;;;18.00;12.83;;;9.70;99.90;;;;;;5033828;28;20510;-66
2021/12/29 06:37:21;;;;;;;19.57;14.57;;;9.70;99.90;;;;;;5033999;28;20434;-66
2021/12/29 06:39:48;;;;;;;20.83;14.27;;;9.60;99.90;;;;;;5033806;28;20446;-66
2021/12/29 06:42:16;;;;;;;20.53;13.37;;;9.60;99.90;;;;;;5033266;28;20481;-67
2021/12/29 06:44:43;;;;;;;22.50;13.70;;;9.60;99.90;;;;;;5033649;28;20451;-66
2021/12/29 06:47:10;;;;;;;17.87;13.97;;;9.70;99.90;;;;;;5033848;28;20461;-66
2021/12/29 06:49:37;;;;;;;20.00;12.00;;;9.70;99.90;;;;;;5033743;28;20613;-66
2021/12/29 06:52:06;;;;;;;14.53;12.30;;;9.70;99.90;;;;;;5033203;28;20485;-66
2021/12/29 06:54:34;;;;;;;15.20;12.03;;;9.70;99.90;;;;;;5033434;28;20482;-66
2021/12/29 06:57:01;;;;;;;16.40;11.83;;;9.70;99.90;;;;;;5033473;28;20446;-66
2021/12/29 06:59:28;;;;;;;14.50;12.03;;;9.70;99.90;;;;;;5032630;28;20952;-66
2021/12/29 07:01:56;;;;;;;17.50;11.57;;;9.70;99.90;;;;;;5033823;28;20474;-66
2021/12/29 07:04:23;;;;;;;14.60;11.60;;;9.70;99.90;;;;;;5033676;28;20443;-67
2021/12/29 07:06:50;;;;;;;21.07;12.07;;;9.80;99.90;;;;;;5033539;28;20431;-66
2021/12/29 07:09:19;;;;;;;14.23;10.80;;;9.80;99.90;;;;;;5033963;28;20450;-66
2021/12/29 07:11:46;;;;;;;18.27;11.47;;;9.80;99.90;;;;;;5033269;28;20471;-67
2021/12/29 07:14:13;;;;;;;18.33;12.03;;;9.80;99.90;;;;;;5033258;28;20482;-66
2021/12/29 07:16:43;;;;;;;10.97;9.57;;;9.80;99.90;;;;;;5033294;28;20449;-66
2021/12/29 07:19:11;;;;;;;13.60;10.70;;;9.80;99.90;;;;;;5033440;28;20435;-66
2021/12/29 07:21:38;;;;;;;11.20;9.90;;;9.80;99.90;;;;;;5033070;28;20475;-67
2021/12/29 07:24:05;;;;;;;13.20;9.90;;;9.80;99.90;;;;;;5033098;28;20442;-67
2021/12/29 07:26:34;;;;;;;12.30;9.17;;;9.90;99.90;;;;;;5033241;28;20431;-67
2021/12/29 07:29:01;;;;;;;14.20;9.33;;;9.90;99.90;;;;;;5033142;28;20449;-70
2021/12/29 07:31:28;;;;;;;11.63;9.10;;;10.00;99.90;;;;;;5032750;28;20466;-70
2021/12/29 07:33:55;;;;;;;10.30;9.10;;;10.00;99.90;;;;;;5034797;28;20505;-69
2021/12/29 07:36:22;;;;;;;13.20;9.50;;;9.90;99.90;;;;;;5034455;28;20454;-69
2021/12/29 07:38:49;;;;;;;13.40;8.50;;;9.90;99.90;;;;;;5033081;28;20443;-70
2021/12/29 07:41:16;;;;;;;11.30;8.70;;;9.90;99.90;;;;;;5032976;28;20462;-70
2021/12/29 07:43:44;;;;;;;12.90;9.30;;;9.80;99.90;;;;;;5033056;28;20442;-70
2021/12/29 07:46:13;;;;;;;8.73;7.87;;;9.90;99.90;;;;;;5033490;28;20446;-69
2021/12/29 07:48:40;;;;;;;9.87;8.13;;;9.80;99.90;;;;;;5033342;28;20473;-70
2021/12/29 07:51:09;;;;;;;9.73;8.70;;;9.90;99.90;;;;;;5032798;28;21011;-72
2021/12/29 07:53:37;;;;;;;10.50;7.90;;;9.90;99.90;;;;;;5033019;28;20481;-70
2021/12/29 07:56:05;;;;;;;12.40;9.37;;;9.90;99.90;;;;;;5032979;28;20839;-70
2021/12/29 07:58:32;;;;;;;8.23;7.30;;;9.90;99.90;;;;;;5032879;28;20569;-70
2021/12/29 08:01:00;;;;;;;10.07;7.80;;;9.90;99.90;;;;;;5033364;28;20466;-70
2021/12/29 08:03:27;;;;;;;9.23;6.93;;;9.90;99.90;;;;;;5032909;28;20451;-70
2021/12/29 08:05:54;;;;;;;8.70;7.80;;;10.00;99.90;;;;;;5032973;28;20457;-70
2021/12/29 08:08:21;;;;;;;10.17;7.23;;;9.90;99.90;;;;;;5032773;28;20447;-70
2021/12/29 08:10:47;;;;;;;10.00;7.73;;;9.90;99.90;;;;;;5032803;28;20457;-69
2021/12/29 08:13:14;;;;;;;11.10;6.83;;;9.90;99.90;;;;;;5036162;28;20446;-70
2021/12/29 08:15:41;;;;;;;9.43;7.10;;;9.90;99.90;;;;;;5036321;28;20454;-70
2021/12/29 08:18:09;;;;;;;16.83;7.53;;;9.90;99.90;;;;;;5036215;28;20453;-70
2021/12/29 08:20:36;;;;;;;12.43;7.87;;;9.90;99.90;;;;;;5036152;28;20450;-70
2021/12/29 08:23:04;;;;;;;10.43;8.17;;;9.90;99.90;;;;;;5035863;28;20816;-70
2021/12/29 08:25:31;;;;;;;7.77;6.97;;;10.00;99.90;;;;;;5035804;28;20446;-70
2021/12/29 08:27:58;;;;;;;12.50;6.90;;;10.10;99.90;;;;;;5036099;28;20431;-70
2021/12/29 08:30:25;;;;;;;7.80;7.00;;;10.10;99.90;;;;;;5036521;28;20454;-67
2021/12/29 08:32:52;;;;;;;9.23;6.90;;;10.10;99.90;;;;;;5037067;28;20462;-67
2021/12/29 08:35:20;;;;;;;11.70;7.37;;;10.10;99.90;;;;;;5035794;28;20489;-67
2021/12/29 08:37:47;;;;;;;10.43;6.77;;;10.10;99.90;;;;;;5035619;28;20488;-67
2021/12/29 08:40:15;;;;;;;9.30;6.70;;;10.00;99.90;;;;;;5035816;28;20446;-67
2021/12/29 08:42:42;;;;;;;8.83;6.70;;;10.10;99.90;;;;;;5035706;28;20473;-67
2021/12/29 08:45:11;;;;;;;9.53;7.97;;;10.20;99.90;;;;;;5035424;28;20442;-67
2021/12/29 08:47:38;;;;;;;6.80;6.20;;;10.20;99.90;;;;;;5035719;28;20447;-67
2021/12/29 08:50:10;;;;;;;6.47;5.83;;;10.20;99.90;;;;;;5035353;28;20450;-67
2021/12/29 08:52:39;;;;;;;6.20;5.60;;;10.30;99.90;;;;;;5035218;28;20478;-66
2021/12/29 08:55:09;;;;;;;7.43;6.73;;;10.30;99.90;;;;;;5035467;28;20482;-66
2021/12/29 08:57:36;;;;;;;9.63;6.67;;;10.40;99.90;;;;;;5035560;28;20457;-66
2021/12/29 09:00:05;;;;;;;9.17;6.17;;;10.30;99.90;;;;;;5035376;28;20458;-66
2021/12/29 09:02:31;;;;;;;13.33;5.97;;;10.30;99.90;;;;;;5035352;28;20470;-67
2021/12/29 09:04:58;;;;;;;10.13;8.07;;;10.30;99.90;;;;;;5035337;28;20438;-66
2021/12/29 09:07:25;;;;;;;10.93;7.27;;;10.40;99.90;;;;;;5035285;28;20443;-67
2021/12/29 09:09:53;;;;;;;8.53;7.03;;;10.40;99.90;;;;;;5035307;28;20808;-67
2021/12/29 09:12:20;;;;;;;9.80;6.60;;;10.40;99.90;;;;;;5035224;28;20477;-67
2021/12/29 09:14:46;;;;;;;10.30;6.50;;;10.40;99.90;;;;;;5035308;28;20478;-67
2021/12/29 09:17:13;;;;;;;6.77;6.03;;;10.40;99.90;;;;;;5035254;28;20484;-67
2021/12/29 09:19:41;;;;;;;8.80;6.17;;;10.50;99.90;;;;;;5035045;28;20458;-67
2021/12/29 09:22:09;;;;;;;8.87;6.27;;;10.50;99.90;;;;;;5034502;28;20988;-67
2021/12/29 09:24:36;;;;;;;11.50;6.87;;;10.60;99.90;;;;;;5034762;28;20431;-67
2021/12/29 09:27:05;;;;;;;14.30;6.27;;;10.70;99.90;;;;;;5034866;28;20442;-67
2021/12/29 09:29:33;;;;;;;6.33;5.67;;;10.70;99.90;;;;;;5034895;28;20450;-66
2021/12/29 09:32:00;;;;;;;6.93;6.00;;;10.70;99.90;;;;;;5034798;28;20470;-66
2021/12/29 09:34:27;;;;;;;11.00;6.30;;;10.70;99.90;;;;;;5034780;28;20489;-67
2021/12/29 09:36:55;;;;;;;7.20;6.37;;;10.70;99.90;;;;;;5034782;28;20463;-66
2021/12/29 09:39:22;;;;;;;6.00;5.20;;;10.70;99.90;;;;;;5034422;28;20873;-66
2021/12/29 09:41:48;;;;;;;6.40;5.50;;;10.70;99.90;;;;;;5034659;28;20466;-67
2021/12/29 09:44:16;;;;;;;6.50;5.80;;;10.80;99.90;;;;;;5034659;28;20517;-66
2021/12/29 09:46:43;;;;;;;7.23;5.90;;;10.80;99.90;;;;;;5034555;28;20439;-67
2021/12/29 09:49:10;;;;;;;8.33;6.90;;;10.90;99.90;;;;;;5034555;28;20439;-67
2021/12/29 09:51:38;;;;;;;11.53;6.40;;;11.00;99.90;;;;;;5034184;28;20496;-68
2021/12/29 09:54:05;;;;;;;9.93;6.03;;;11.00;99.90;;;;;;5034430;28;20478;-66
2021/12/29 09:56:32;;;;;;;10.50;6.73;;;11.20;99.90;;;;;;5034503;28;20446;-66
2021/12/29 09:58:59;;;;;;;10.97;7.03;;;11.20;99.90;;;;;;5034429;28;20443;-66
2021/12/29 10:01:27;;;;;;;11.00;6.90;;;11.30;99.90;;;;;;5034252;28;20474;-67
2021/12/29 10:03:54;;;;;;;13.37;7.30;;;11.40;99.90;;;;;;5034196;28;20453;-67
2021/12/29 10:06:21;;;;;;;13.07;7.03;;;11.40;99.90;;;;;;5034190;28;20453;-67
2021/12/29 10:08:49;;;;;;;15.90;7.40;;;11.40;99.90;;;;;;5034230;28;20442;-66
2021/12/29 10:11:19;;;;;;;9.60;6.23;;;11.50;99.90;;;;;;5034084;28;20462;-67
2021/12/29 10:13:48;;;;;;;9.83;6.13;;;11.50;99.90;;;;;;5034050;28;20493;-67
2021/12/29 10:16:18;;;;;;;10.63;5.33;;;11.60;99.90;;;;;;5034020;28;20529;-67
2021/12/29 10:18:53;;;;;;;7.30;5.60;;;11.70;99.90;;;;;;5033971;28;20447;-67
2021/12/29 10:21:25;;;;;;;14.73;5.73;;;11.70;99.90;;;;;;5033908;28;20516;-67
2021/12/29 10:23:54;;;;;;;11.20;6.33;;;11.80;99.90;;;;;;5033698;28;20442;-67
2021/12/29 10:26:23;;;;;;;10.13;5.30;;;11.90;99.90;;;;;;5033840;28;20443;-67
2021/12/29 10:28:51;;;;;;;13.93;5.60;;;11.90;99.90;;;;;;5033945;28;20454;-67
2021/12/29 10:31:20;;;;;;;11.83;5.17;;;12.00;99.90;;;;;;5033694;28;20462;-67
2021/12/29 10:33:51;;;;;;;8.77;5.37;;;12.00;99.90;;;;;;5033369;28;20447;-67
2021/12/29 10:36:21;;;;;;;11.77;6.10;;;12.10;99.90;;;;;;5033428;28;20469;-66
2021/12/29 10:38:55;;;;;;;16.23;6.00;;;12.10;99.90;;;;;;5033729;28;20438;-66
2021/12/29 10:41:22;;;;;;;15.40;5.43;;;12.10;99.90;;;;;;5033712;28;20867;-67
2021/12/29 10:43:54;;;;;;;11.23;6.30;;;12.20;99.90;;;;;;5033998;28;20442;-67
2021/12/29 10:46:23;;;;;;;13.53;6.07;;;12.20;99.90;;;;;;5034483;28;20473;-66
2021/12/29 10:48:53;;;;;;;15.90;5.80;;;12.20;99.90;;;;;;5033754;28;20817;-67
2021/12/29 10:51:25;;;;;;;19.03;6.50;;;12.20;99.90;;;;;;5033412;28;20479;-67
2021/12/29 10:53:52;;;;;;;10.97;5.10;;;12.20;99.90;;;;;;5033228;28;20442;-66
2021/12/29 10:56:21;;;;;;;12.67;5.77;;;12.20;99.90;;;;;;5033685;28;20473;-67
2021/12/29 10:58:48;;;;;;;10.70;5.10;;;12.20;99.90;;;;;;5033092;28;20937;-66
2021/12/29 11:01:17;;;;;;;11.60;5.47;;;12.30;99.90;;;;;;5033356;28;20473;-67
2021/12/29 11:03:46;;;;;;;12.33;6.30;;;12.40;99.90;;;;;;5033250;28;20442;-66
2021/12/29 11:06:17;;;;;;;10.33;4.93;;;12.50;99.90;;;;;;5033387;28;20449;-67
2021/12/29 11:08:49;;;;;;;8.53;5.23;;;12.60;99.90;;;;;;5033701;28;20447;-66
2021/12/29 11:11:17;;;;;;;13.83;5.37;;;12.70;99.90;;;;;;5033170;28;20475;-67
2021/12/29 11:13:44;;;;;;;9.77;4.80;;;12.70;99.90;;;;;;5033295;28;20446;-66
2021/12/29 11:16:11;;;;;;;9.77;4.90;;;12.80;99.90;;;;;;5032882;28;20532;-66
2021/12/29 11:18:47;;;;;;;8.00;4.60;;;12.80;99.90;;;;;;5033485;28;20442;-67
2021/12/29 11:21:24;;;;;;;8.70;4.83;;;12.90;99.90;;;;;;5033439;28;20475;-67
2021/12/29 11:23:51;;;;;;;7.57;4.77;;;12.90;99.90;;;;;;5033258;28;20784;-67
2021/12/29 11:26:28;;;;;;;8.67;5.03;;;12.90;99.90;;;;;;5033428;28;20863;-67
2021/12/29 11:29:03;;;;;;;8.23;4.30;;;12.90;99.90;;;;;;5033184;28;20431;-67
2021/12/29 11:31:34;;;;;;;8.87;4.10;;;13.00;99.90;;;;;;5032739;28;20983;-67
2021/12/29 11:34:16;;;;;;;9.00;4.20;;;13.00;99.90;;;;;;5032796;28;20469;-66
2021/12/29 11:36:46;;;;;;;7.20;4.00;;;13.00;99.90;;;;;;5033116;28;20779;-67
2021/12/29 11:39:12;;;;;;;10.83;4.10;;;12.90;99.90;;;;;;5033074;28;20446;-67
2021/12/29 11:41:42;;;;;;;7.27;4.00;;;12.90;99.90;;;;;;5033047;28;20458;-66
2021/12/29 11:44:09;;;;;;;14.70;3.80;;;12.80;99.90;;;;;;5033225;28;20549;-66
2021/12/29 11:46:36;;;;;;;7.80;3.73;;;12.70;99.90;;;;;;5035498;28;20481;-66
2021/12/29 11:49:04;;;;;;;6.73;3.43;;;12.70;99.90;;;;;;5036761;28;20445;-67
2021/12/29 11:51:45;;;;;;;14.13;3.73;;;12.80;99.90;;;;;;5036437;28;20481;-67
2021/12/29 11:54:19;;;;;;;10.00;3.17;;;12.70;99.90;;;;;;5036944;28;20426;-67
2021/12/29 11:56:47;;;;;;;4.63;2.70;;;12.70;99.90;;;;;;5036705;28;20427;-67
2021/12/29 11:59:15;;;;;;;13.63;3.20;;;12.60;99.90;;;;;;5036706;28;20450;-66
2021/12/29 12:01:42;;;;;;;7.43;3.07;;;12.60;99.90;;;;;;5036580;28;20470;-67
2021/12/29 12:04:12;;;;;;;7.97;3.30;;;12.60;99.90;;;;;;5037099;28;20449;-67
2021/12/29 12:06:41;;;;;;;3.73;2.70;;;12.50;99.90;;;;;;5036628;28;20431;-68
2021/12/29 12:09:25;;;;;;;7.13;3.00;;;12.50;99.90;;;;;;5036429;28;20450;-67
2021/12/29 12:11:54;;;;;;;4.93;2.63;;;12.50;99.90;;;;;;5035276;28;20466;-69
2021/12/29 12:14:24;;;;;;;7.13;2.37;;;12.50;99.90;;;;;;5036502;28;20442;-68
2021/12/29 12:16:57;;;;;;;5.60;2.40;;;12.40;99.90;;;;;;5036072;28;20439;-68
2021/12/29 12:19:25;;;;;;;5.80;2.37;;;12.30;99.90;;;;;;5036684;28;20473;-68
2021/12/29 12:22:04;;;;;;;8.57;2.10;;;12.30;99.90;;;;;;5036081;28;20458;-71
2021/12/29 12:24:33;;;;;;;4.70;2.97;;;12.30;99.90;;;;;;5036047;28;20431;-70
2021/12/29 12:27:02;;;;;;;4.50;2.20;;;12.20;99.90;;;;;;5036152;28;20450;-68
2021/12/29 12:29:31;;;;;;;3.17;2.03;;;12.20;99.90;;;;;;5035983;28;20481;-68
2021/12/29 12:32:04;;;;;;;10.00;2.00;;;12.20;99.90;;;;;;5035898;28;20469;-65
2021/12/29 12:34:32;;;;;;;6.87;2.53;;;12.20;99.90;;;;;;5036093;28;20439;-65
2021/12/29 12:37:00;;;;;;;5.40;2.40;;;12.10;99.90;;;;;;5035841;28;20442;-65
2021/12/29 12:39:27;;;;;;;10.13;3.10;;;12.10;99.90;;;;;;5035828;28;20829;-65
2021/12/29 12:41:56;;;;;;;6.60;2.90;;;12.10;99.90;;;;;;5035518;28;20835;-65
2021/12/29 12:44:32;;;;;;;6.20;3.27;;;12.10;99.90;;;;;;5035739;28;20485;-65
2021/12/29 12:47:10;;;;;;;8.43;3.00;;;12.10;99.90;;;;;;5035813;28;20439;-65